createdAt,value
2017-11-15T00:00:25.864Z,62.19
2017-11-15T00:02:04.363Z,62.17
2017-11-15T00:03:42.773Z,62.18
2017-11-15T00:05:19.759Z,62.20
2017-11-15T00:06:57.026Z,62.21
2017-11-15T00:08:34.167Z,62.24
2017-11-15T00:10:11.324Z,62.26
2017-11-15T00:11:48.768Z,62.29
2017-11-15T00:13:25.150Z,62.29
2017-11-15T00:15:02.251Z,62.29
2017-11-15T00:16:39.430Z,62.31
2017-11-15T00:18:17.061Z,62.33
2017-11-15T00:19:54.256Z,62.36
2017-11-15T00:21:30.825Z,62.37
2017-11-15T00:23:08.023Z,62.39
2017-11-15T00:24:44.956Z,62.41
2017-11-15T00:26:25.865Z,62.42
2017-11-15T00:28:06.644Z,62.43
2017-11-15T00:29:43.405Z,62.44
2017-11-15T00:31:21.006Z,62.45
2017-11-15T00:32:58.561Z,62.45
2017-11-15T00:34:35.853Z,62.46
2017-11-15T00:36:14.311Z,62.46
2017-11-15T00:37:53.639Z,62.47
2017-11-15T00:39:30.853Z,62.49
2017-11-15T00:41:07.816Z,62.49
2017-11-15T00:42:44.966Z,62.50
2017-11-15T00:44:21.836Z,62.52
2017-11-15T00:46:01.220Z,62.53
2017-11-15T00:47:38.097Z,62.55
2017-11-15T00:49:15.915Z,62.57
2017-11-15T00:50:52.889Z,62.56
2017-11-15T00:52:29.253Z,62.57
2017-11-15T00:54:07.690Z,62.58
2017-11-15T00:55:46.290Z,62.59
2017-11-15T00:57:23.486Z,62.61
2017-11-15T00:58:59.960Z,62.63
2017-11-15T01:00:37.947Z,62.64
2017-11-15T01:02:18.661Z,62.65
2017-11-15T01:03:56.552Z,62.66
2017-11-15T01:05:34.001Z,62.68
2017-11-15T01:07:10.470Z,62.67
2017-11-15T01:08:47.177Z,62.69
2017-11-15T01:10:25.569Z,62.68
2017-11-15T01:12:02.691Z,62.69
2017-11-15T01:13:39.221Z,62.71
2017-11-15T01:15:17.159Z,62.65
2017-11-15T01:16:54.079Z,62.72
2017-11-15T01:18:31.491Z,62.74
2017-11-15T01:20:08.700Z,62.72
2017-11-15T01:21:46.214Z,62.72
2017-11-15T01:23:23.039Z,62.74
2017-11-15T01:25:01.072Z,62.76
2017-11-15T01:26:37.695Z,62.76
2017-11-15T01:28:14.937Z,62.78
2017-11-15T01:29:51.622Z,62.79
2017-11-15T01:31:28.257Z,62.80
2017-11-15T01:33:05.508Z,62.83
2017-11-15T01:34:42.461Z,62.84
2017-11-15T01:36:21.380Z,62.86
2017-11-15T01:37:59.742Z,62.87
2017-11-15T01:39:38.239Z,62.88
2017-11-15T01:41:16.362Z,62.90
2017-11-15T01:42:54.741Z,62.92
2017-11-15T01:44:31.923Z,62.90
2017-11-15T01:46:08.651Z,62.91
2017-11-15T01:47:45.296Z,62.92
2017-11-15T01:49:22.624Z,62.94
2017-11-15T01:50:59.208Z,62.95
2017-11-15T01:52:36.294Z,62.94
2017-11-15T01:54:15.813Z,62.97
2017-11-15T01:55:53.403Z,62.97
2017-11-15T01:57:30.162Z,63.00
2017-11-15T01:59:07.828Z,63.00
2017-11-15T02:00:57.336Z,63.00
2017-11-15T02:02:34.120Z,63.02
2017-11-15T02:04:11.394Z,63.03
2017-11-15T02:05:48.499Z,63.05
2017-11-15T02:07:25.772Z,63.06
2017-11-15T02:09:02.613Z,63.08
2017-11-15T02:10:39.033Z,63.10
2017-11-15T02:12:16.483Z,63.08
2017-11-15T02:13:53.212Z,63.09
2017-11-15T02:15:29.991Z,63.11
2017-11-15T02:17:06.753Z,63.11
2017-11-15T02:18:43.388Z,63.13
2017-11-15T02:20:20.091Z,63.13
2017-11-15T02:21:56.953Z,63.14
2017-11-15T02:23:33.461Z,63.15
2017-11-15T02:25:10.147Z,63.19
2017-11-15T02:26:47.290Z,63.16
2017-11-15T02:28:28.998Z,63.16
2017-11-15T02:30:09.206Z,63.16
2017-11-15T02:31:50.098Z,63.18
2017-11-15T02:33:31.135Z,63.21
2017-11-15T02:35:08.045Z,63.23
2017-11-15T02:36:44.616Z,63.22
2017-11-15T02:38:21.262Z,63.21
2017-11-15T02:39:58.370Z,63.23
2017-11-15T02:41:35.347Z,63.25
2017-11-15T02:43:12.959Z,63.26
2017-11-15T02:44:51.132Z,63.28
2017-11-15T02:46:28.545Z,63.27
2017-11-15T02:48:05.351Z,63.29
2017-11-15T02:49:42.281Z,63.29
2017-11-15T02:51:20.485Z,63.30
2017-11-15T02:53:00.299Z,63.33
2017-11-15T02:54:36.718Z,63.33
2017-11-15T02:56:13.924Z,63.33
2017-11-15T02:57:51.961Z,63.34
2017-11-15T02:59:29.794Z,63.34
2017-11-15T03:01:06.750Z,63.34
2017-11-15T03:02:43.410Z,63.33
2017-11-15T03:04:21.118Z,63.34
2017-11-15T03:06:00.281Z,63.35
2017-11-15T03:07:39.576Z,63.37
2017-11-15T03:09:18.487Z,63.39
2017-11-15T03:10:55.042Z,63.43
2017-11-15T03:12:32.232Z,63.43
2017-11-15T03:14:08.986Z,63.45
2017-11-15T03:15:45.922Z,63.45
2017-11-15T03:17:22.653Z,63.44
2017-11-15T03:18:58.950Z,63.45
2017-11-15T03:20:35.397Z,63.48
2017-11-15T03:22:12.687Z,63.47
2017-11-15T03:23:49.365Z,63.47
2017-11-15T03:25:26.040Z,63.45
2017-11-15T03:27:03.036Z,63.44
2017-11-15T03:28:39.403Z,63.42
2017-11-15T03:30:18.323Z,63.43
2017-11-15T03:31:55.016Z,63.45
2017-11-15T03:33:31.888Z,63.47
2017-11-15T03:35:08.537Z,63.48
2017-11-15T03:36:47.071Z,63.52
2017-11-15T03:38:26.474Z,63.51
2017-11-15T03:40:04.024Z,63.52
2017-11-15T03:41:41.384Z,63.51
2017-11-15T03:43:18.259Z,63.52
2017-11-15T03:44:55.795Z,63.50
2017-11-15T03:46:32.998Z,63.51
2017-11-15T03:48:13.807Z,63.52
2017-11-15T03:49:51.737Z,63.55
2017-11-15T03:51:28.837Z,63.57
2017-11-15T03:53:05.132Z,63.58
2017-11-15T03:54:41.876Z,63.59
2017-11-15T03:56:19.036Z,63.61
2017-11-15T03:57:58.520Z,63.62
2017-11-15T03:59:34.930Z,63.63
2017-11-15T04:01:11.573Z,63.63
2017-11-15T04:02:48.296Z,63.63
2017-11-15T04:04:24.754Z,63.64
2017-11-15T04:06:02.372Z,63.66
2017-11-15T04:07:38.813Z,63.68
2017-11-15T04:09:17.625Z,63.69
2017-11-15T04:10:56.575Z,63.71
2017-11-15T04:12:35.129Z,63.71
2017-11-15T04:14:13.436Z,63.71
2017-11-15T04:15:52.448Z,63.72
2017-11-15T04:17:30.055Z,63.73
2017-11-15T04:19:06.620Z,63.73
2017-11-15T04:20:43.038Z,63.73
2017-11-15T04:22:21.959Z,63.73
2017-11-15T04:24:01.567Z,63.73
2017-11-15T04:25:38.694Z,63.72
2017-11-15T04:27:16.312Z,63.72
2017-11-15T04:28:54.795Z,63.73
2017-11-15T04:30:33.932Z,63.73
2017-11-15T04:32:20.634Z,63.74
2017-11-15T04:33:59.235Z,63.75
2017-11-15T04:35:36.751Z,63.76
2017-11-15T04:37:13.141Z,63.75
2017-11-15T04:38:49.495Z,63.76
2017-11-15T04:40:26.064Z,63.77
2017-11-15T04:42:02.454Z,63.77
2017-11-15T04:43:42.437Z,63.77
2017-11-15T04:45:22.337Z,63.78
2017-11-15T04:47:02.828Z,63.78
2017-11-15T04:48:42.925Z,63.79
2017-11-15T04:50:21.325Z,63.79
2017-11-15T04:51:58.423Z,63.80
2017-11-15T04:53:36.569Z,63.81
2017-11-15T04:55:14.341Z,63.81
2017-11-15T04:56:50.973Z,63.82
2017-11-15T04:58:28.188Z,63.81
2017-11-15T05:00:06.066Z,63.82
2017-11-15T05:01:43.770Z,63.82
2017-11-15T05:03:23.962Z,63.82
2017-11-15T05:05:01.476Z,63.83
2017-11-15T05:06:39.956Z,63.83
2017-11-15T05:08:16.727Z,63.85
2017-11-15T05:09:55.027Z,63.86
2017-11-15T05:11:31.352Z,63.87
2017-11-15T05:13:09.770Z,63.88
2017-11-15T05:14:46.305Z,63.90
2017-11-15T05:16:25.316Z,63.90
2017-11-15T05:18:01.569Z,63.91
2017-11-15T05:19:40.479Z,63.93
2017-11-15T05:21:18.463Z,63.94
2017-11-15T05:22:55.701Z,63.97
2017-11-15T05:24:32.932Z,63.98
2017-11-15T05:26:10.417Z,63.98
2017-11-15T05:27:47.737Z,63.99
2017-11-15T05:29:32.501Z,64.00
2017-11-15T05:31:09.199Z,64.00
2017-11-15T05:32:46.219Z,64.01
2017-11-15T05:34:22.504Z,64.00
2017-11-15T05:35:59.612Z,63.98
2017-11-15T05:37:36.021Z,63.98
2017-11-15T05:39:12.710Z,63.99
2017-11-15T05:40:49.453Z,63.99
2017-11-15T05:42:26.231Z,63.96
2017-11-15T05:44:02.490Z,63.94
2017-11-15T05:45:39.244Z,63.90
2017-11-15T05:47:15.631Z,63.90
2017-11-15T05:48:52.193Z,63.91
2017-11-15T05:50:28.480Z,63.91
2017-11-15T05:52:05.933Z,63.94
2017-11-15T05:53:42.415Z,63.97
2017-11-15T05:55:18.825Z,64.02
2017-11-15T05:56:56.239Z,64.05
2017-11-15T05:58:32.826Z,64.04
2017-11-15T06:00:20.632Z,64.05
2017-11-15T06:01:57.111Z,64.08
2017-11-15T06:03:33.750Z,64.11
2017-11-15T06:05:13.671Z,64.13
2017-11-15T06:06:50.749Z,64.12
2017-11-15T06:08:27.098Z,64.13
2017-11-15T06:10:16.546Z,64.16
2017-11-15T06:11:55.337Z,64.16
2017-11-15T06:13:32.044Z,64.14
2017-11-15T06:15:09.021Z,64.13
2017-11-15T06:16:45.868Z,64.13
2017-11-15T06:18:22.819Z,64.16
2017-11-15T06:20:00.251Z,64.18
2017-11-15T06:21:36.613Z,64.19
2017-11-15T06:23:13.457Z,64.20
2017-11-15T06:24:51.685Z,64.21
2017-11-15T06:26:28.475Z,64.22
2017-11-15T06:28:06.751Z,64.24
2017-11-15T06:29:43.241Z,64.24
2017-11-15T06:31:20.387Z,64.25
2017-11-15T06:32:57.547Z,64.29
2017-11-15T06:34:34.515Z,64.28
2017-11-15T06:36:11.011Z,64.29
2017-11-15T06:37:47.489Z,64.30
2017-11-15T06:39:24.561Z,64.30
2017-11-15T06:41:01.164Z,64.30
2017-11-15T06:42:37.931Z,64.32
2017-11-15T06:44:14.692Z,64.32
2017-11-15T06:45:51.234Z,64.32
2017-11-15T06:47:27.687Z,64.33
2017-11-15T06:49:04.175Z,64.33
2017-11-15T06:50:40.815Z,64.33
2017-11-15T06:52:17.142Z,64.34
2017-11-15T06:53:53.637Z,64.35
2017-11-15T06:55:30.047Z,64.35
2017-11-15T06:57:06.637Z,64.34
2017-11-15T06:58:44.170Z,64.35
2017-11-15T07:00:21.204Z,64.36
2017-11-15T07:01:57.834Z,64.35
2017-11-15T07:03:35.348Z,64.36
2017-11-15T07:05:11.745Z,64.36
2017-11-15T07:06:48.153Z,64.38
2017-11-15T07:08:25.121Z,64.39
2017-11-15T07:10:01.815Z,64.39
2017-11-15T07:11:40.196Z,64.43
2017-11-15T07:13:19.687Z,64.44
2017-11-15T07:14:56.967Z,64.41
2017-11-15T07:16:34.380Z,64.36
2017-11-15T07:18:10.922Z,64.29
2017-11-15T07:19:47.563Z,64.26
2017-11-15T07:21:28.372Z,64.21
2017-11-15T07:23:05.841Z,64.19
2017-11-15T07:24:42.237Z,64.17
2017-11-15T07:26:18.541Z,64.15
2017-11-15T07:27:54.861Z,64.14
2017-11-15T07:29:31.642Z,64.14
2017-11-15T07:31:08.249Z,64.14
2017-11-15T07:32:44.988Z,64.13
2017-11-15T07:34:21.530Z,64.11
2017-11-15T07:35:58.153Z,64.10
2017-11-15T07:37:34.752Z,64.10
2017-11-15T07:39:12.038Z,64.08
2017-11-15T07:40:48.582Z,64.07
2017-11-15T07:42:25.230Z,64.08
2017-11-15T07:44:02.280Z,64.08
2017-11-15T07:45:38.984Z,64.08
2017-11-15T07:47:15.297Z,64.09
2017-11-15T07:48:51.852Z,64.10
2017-11-15T07:50:28.981Z,64.10
2017-11-15T07:52:05.936Z,64.11
2017-11-15T07:53:42.456Z,64.13
2017-11-15T07:55:19.150Z,64.14
2017-11-15T07:56:56.365Z,64.16
2017-11-15T07:58:32.884Z,64.18
2017-11-15T08:00:11.707Z,64.20
2017-11-15T08:03:22.336Z,64.23
2017-11-15T08:04:58.982Z,64.22
2017-11-15T08:06:36.801Z,64.22
2017-11-15T08:08:13.421Z,64.22
2017-11-15T08:09:50.077Z,64.24
2017-11-15T08:11:26.727Z,64.28
2017-11-15T08:13:03.179Z,64.24
2017-11-15T08:14:39.887Z,64.25
2017-11-15T08:16:27.782Z,64.27
2017-11-15T08:18:04.142Z,64.26
2017-11-15T08:19:40.488Z,64.29
2017-11-15T08:21:17.018Z,64.31
2017-11-15T08:22:53.414Z,64.33
2017-11-15T08:24:30.491Z,64.36
2017-11-15T08:26:07.562Z,64.36
2017-11-15T08:27:44.428Z,64.41
2017-11-15T08:29:21.347Z,64.42
2017-11-15T08:30:57.848Z,64.44
2017-11-15T08:32:34.439Z,64.50
2017-11-15T08:34:11.176Z,64.52
2017-11-15T08:35:47.983Z,64.56
2017-11-15T08:37:25.478Z,64.58
2017-11-15T08:39:02.845Z,64.60
2017-11-15T08:40:39.807Z,64.63
2017-11-15T08:42:16.626Z,64.67
2017-11-15T08:43:52.965Z,64.70
2017-11-15T08:45:29.708Z,64.74
2017-11-15T08:47:06.335Z,64.77
2017-11-15T08:48:43.162Z,64.77
2017-11-15T08:50:19.816Z,64.76
2017-11-15T08:51:57.060Z,64.76
2017-11-15T08:53:34.881Z,64.78
2017-11-15T08:55:11.406Z,64.79
2017-11-15T08:56:51.089Z,64.81
2017-11-15T08:58:28.267Z,64.80
2017-11-15T09:00:09.121Z,64.79
2017-11-15T09:01:45.876Z,64.77
2017-11-15T09:03:22.544Z,64.75
2017-11-15T09:04:59.928Z,64.74
2017-11-15T09:06:37.849Z,64.73
2017-11-15T09:08:16.410Z,64.73
2017-11-15T09:09:53.257Z,64.72
2017-11-15T09:11:29.881Z,64.71
2017-11-15T09:13:06.498Z,64.72
2017-11-15T09:14:42.856Z,64.73
2017-11-15T09:16:19.552Z,64.74
2017-11-15T09:17:56.197Z,64.74
2017-11-15T09:19:33.370Z,64.75
2017-11-15T09:21:10.554Z,64.76
2017-11-15T09:22:51.585Z,64.76
2017-11-15T09:24:28.492Z,64.77
2017-11-15T09:26:06.136Z,64.79
2017-11-15T09:29:17.980Z,64.82
2017-11-15T09:30:59.183Z,64.82
2017-11-15T09:32:36.362Z,64.85
2017-11-15T09:34:12.769Z,64.85
2017-11-15T09:35:49.136Z,64.87
2017-11-15T09:37:25.340Z,64.88
2017-11-15T09:39:02.672Z,64.91
2017-11-15T09:40:39.613Z,64.93
2017-11-15T09:42:16.118Z,64.96
2017-11-15T09:43:52.571Z,64.97
2017-11-15T09:45:29.656Z,64.98
2017-11-15T09:48:54.133Z,65.02
2017-11-15T09:50:35.363Z,65.04
2017-11-15T09:52:14.637Z,65.06
2017-11-15T09:53:53.573Z,65.08
2017-11-15T09:55:33.764Z,65.10
2017-11-15T09:57:13.498Z,65.09
2017-11-15T09:58:53.159Z,65.11
2017-11-15T10:00:31.443Z,65.13
2017-11-15T10:02:09.755Z,65.14
2017-11-15T10:03:49.388Z,65.16
2017-11-15T10:05:28.064Z,65.18
2017-11-15T10:07:07.283Z,65.22
2017-11-15T10:08:46.441Z,65.23
2017-11-15T10:10:27.341Z,65.24
2017-11-15T10:12:05.942Z,65.25
2017-11-15T10:13:45.229Z,65.26
2017-11-15T10:15:23.940Z,65.29
2017-11-15T10:17:06.384Z,65.30
2017-11-15T10:18:45.941Z,65.33
2017-11-15T10:20:25.275Z,65.35
2017-11-15T10:22:05.251Z,65.38
2017-11-15T10:23:44.664Z,65.39
2017-11-15T10:25:23.726Z,65.41
2017-11-15T10:27:02.137Z,65.41
2017-11-15T10:28:40.519Z,65.42
2017-11-15T10:30:19.644Z,65.43
2017-11-15T10:31:56.929Z,65.45
2017-11-15T10:33:33.786Z,65.48
2017-11-15T10:35:10.123Z,65.52
2017-11-15T10:36:49.033Z,65.56
2017-11-15T10:38:28.838Z,65.60
2017-11-15T10:40:08.546Z,65.64
2017-11-15T10:41:47.217Z,65.67
2017-11-15T10:43:26.225Z,65.71
2017-11-15T10:45:06.683Z,65.76
2017-11-15T10:46:47.141Z,65.82
2017-11-15T10:48:25.541Z,65.88
2017-11-15T10:50:04.235Z,65.92
2017-11-15T10:51:42.647Z,65.96
2017-11-15T10:53:21.847Z,66.01
2017-11-15T10:55:02.143Z,66.04
2017-11-15T10:56:40.741Z,66.08
2017-11-15T10:58:19.762Z,66.10
2017-11-15T10:59:58.561Z,66.13
2017-11-15T11:01:38.340Z,66.15
2017-11-15T11:03:17.047Z,66.16
2017-11-15T11:04:56.574Z,66.19
2017-11-15T11:06:34.948Z,66.21
2017-11-15T11:08:14.057Z,66.22
2017-11-15T11:09:52.770Z,66.26
2017-11-15T11:11:33.483Z,66.27
2017-11-15T11:13:13.173Z,66.29
2017-11-15T11:14:52.681Z,66.31
2017-11-15T11:16:33.157Z,66.32
2017-11-15T11:18:11.649Z,66.32
2017-11-15T11:19:50.942Z,66.34
2017-11-15T11:21:31.472Z,66.36
2017-11-15T11:23:10.961Z,66.37
2017-11-15T11:24:49.849Z,66.42
2017-11-15T11:26:28.445Z,66.45
2017-11-15T11:28:07.644Z,66.48
2017-11-15T11:29:46.236Z,66.49
2017-11-15T11:31:25.483Z,66.50
2017-11-15T11:33:05.736Z,66.51
2017-11-15T11:34:45.589Z,66.52
2017-11-15T11:36:24.240Z,66.55
2017-11-15T11:38:02.845Z,66.57
2017-11-15T11:39:42.167Z,66.60
2017-11-15T11:41:21.068Z,66.64
2017-11-15T11:42:59.860Z,66.65
2017-11-15T11:44:41.367Z,66.65
2017-11-15T11:46:31.200Z,66.68
2017-11-15T11:48:10.456Z,66.71
2017-11-15T11:49:48.414Z,66.73
2017-11-15T11:51:27.121Z,66.74
2017-11-15T11:53:05.557Z,66.73
2017-11-15T11:54:44.463Z,66.73
2017-11-15T11:56:32.653Z,66.75
2017-11-15T11:58:16.547Z,66.76
2017-11-15T11:59:56.309Z,66.78
2017-11-15T12:01:34.567Z,66.79
2017-11-15T12:03:13.415Z,66.79
2017-11-15T12:04:50.921Z,66.79
2017-11-15T12:06:32.179Z,66.80
2017-11-15T12:08:15.503Z,66.81
2017-11-15T12:09:54.987Z,66.84
2017-11-15T12:11:36.983Z,66.86
2017-11-15T12:13:17.894Z,66.87
2017-11-15T12:14:57.033Z,66.88
2017-11-15T12:16:40.165Z,66.88
2017-11-15T12:18:22.211Z,66.89
2017-11-15T12:20:03.769Z,66.90
2017-11-15T12:21:45.338Z,66.91
2017-11-15T12:23:25.185Z,66.92
2017-11-15T12:25:06.418Z,66.90
2017-11-15T12:26:45.646Z,66.88
2017-11-15T12:28:27.307Z,66.88
2017-11-15T12:30:09.586Z,66.87
2017-11-15T12:31:55.708Z,66.89
2017-11-15T12:33:39.147Z,66.91
2017-11-15T12:35:19.037Z,66.92
2017-11-15T12:36:59.805Z,66.92
2017-11-15T12:38:43.208Z,66.93
2017-11-15T12:40:24.365Z,66.89
2017-11-15T12:42:07.208Z,66.88
2017-11-15T12:43:48.600Z,66.84
2017-11-15T12:45:30.818Z,66.82
2017-11-15T12:47:13.773Z,66.82
2017-11-15T12:48:53.944Z,66.80
2017-11-15T12:50:33.728Z,66.80
2017-11-15T12:52:15.290Z,66.81
2017-11-15T12:54:00.761Z,66.84
2017-11-15T12:55:43.751Z,66.82
2017-11-15T12:57:28.571Z,66.81
2017-11-15T12:59:12.695Z,66.80
2017-11-15T13:00:55.603Z,66.81
2017-11-15T13:02:43.365Z,66.81
2017-11-15T13:04:26.833Z,66.80
2017-11-15T13:06:10.066Z,66.79
2017-11-15T13:07:56.651Z,66.79
2017-11-15T13:09:37.104Z,66.79
2017-11-15T13:11:19.367Z,66.81
2017-11-15T13:13:01.875Z,66.81
2017-11-15T13:14:43.689Z,66.81
2017-11-15T13:16:33.134Z,66.79
2017-11-15T13:18:17.169Z,66.78
2017-11-15T13:20:02.240Z,66.78
2017-11-15T13:21:49.856Z,66.78
2017-11-15T13:23:34.590Z,66.80
2017-11-15T13:25:18.196Z,66.79
2017-11-15T13:27:03.514Z,66.80
2017-11-15T13:28:48.485Z,66.81
2017-11-15T13:30:37.192Z,66.84
2017-11-15T13:32:22.574Z,66.86
2017-11-15T13:34:09.873Z,66.89
2017-11-15T13:36:00.991Z,66.90
2017-11-15T13:37:49.588Z,66.91
2017-11-15T13:39:34.677Z,66.92
2017-11-15T13:41:17.968Z,66.92
2017-11-15T13:43:05.588Z,66.93
2017-11-15T13:44:55.882Z,66.91
2017-11-15T13:46:39.553Z,66.92
2017-11-15T13:48:23.352Z,66.94
2017-11-15T13:50:10.672Z,66.94
2017-11-15T13:53:53.831Z,66.96
2017-11-15T13:55:40.950Z,66.98
2017-11-15T13:57:23.338Z,66.99
2017-11-15T13:59:07.764Z,66.99
2017-11-15T14:00:54.224Z,66.99
2017-11-15T14:02:40.833Z,67.01
2017-11-15T14:04:26.550Z,67.02
2017-11-15T14:06:12.511Z,67.04
2017-11-15T14:07:59.022Z,67.07
2017-11-15T14:09:48.829Z,67.08
2017-11-15T14:11:34.983Z,67.08
2017-11-15T14:13:20.140Z,67.10
2017-11-15T14:15:07.233Z,67.11
2017-11-15T14:16:50.671Z,67.14
2017-11-15T14:18:37.143Z,67.14
2017-11-15T14:20:26.056Z,67.18
2017-11-15T14:22:11.202Z,67.20
2017-11-15T14:23:56.883Z,67.23
2017-11-15T14:25:46.284Z,67.25
2017-11-15T14:27:38.731Z,67.28
2017-11-15T14:29:32.752Z,67.30
2017-11-15T14:31:36.525Z,67.32
2017-11-15T14:33:26.657Z,67.31
2017-11-15T14:35:16.327Z,67.33
2017-11-15T14:37:17.146Z,67.36
2017-11-15T14:39:02.942Z,67.38
2017-11-15T14:40:46.450Z,67.39
2017-11-15T14:42:36.432Z,67.42
2017-11-15T14:44:29.066Z,67.44
2017-11-15T14:46:15.557Z,67.47
2017-11-15T14:48:08.698Z,67.51
2017-11-15T14:50:09.196Z,67.53
2017-11-15T14:51:58.666Z,67.57
2017-11-15T14:53:52.117Z,67.61
2017-11-15T14:55:42.755Z,67.59
2017-11-15T14:57:34.485Z,67.63
2017-11-15T14:59:25.078Z,67.66
2017-11-15T15:01:10.497Z,67.69
2017-11-15T15:03:01.271Z,67.70
2017-11-15T15:04:56.663Z,67.72
2017-11-15T15:06:47.852Z,67.73
2017-11-15T15:08:38.748Z,67.73
2017-11-15T15:10:29.359Z,67.75
2017-11-15T15:12:19.686Z,67.76
2017-11-15T15:14:08.091Z,67.78
2017-11-15T15:16:08.690Z,67.78
2017-11-15T15:18:01.306Z,67.80
2017-11-15T15:19:49.226Z,67.81
2017-11-15T15:21:50.687Z,67.84
2017-11-15T15:23:42.611Z,67.85
2017-11-15T15:25:52.813Z,67.88
2017-11-15T15:27:42.899Z,67.90
2017-11-15T15:29:38.082Z,67.93
2017-11-15T15:31:39.686Z,67.97
2017-11-15T15:33:28.206Z,67.99
2017-11-15T15:35:16.096Z,68.00
2017-11-15T15:37:06.010Z,68.03
2017-11-15T15:39:01.091Z,68.04
2017-11-15T15:40:46.255Z,68.07
2017-11-15T15:42:36.783Z,68.10
2017-11-15T15:44:27.186Z,68.12
2017-11-15T15:46:27.970Z,68.14
2017-11-15T15:48:17.596Z,68.17
2017-11-15T15:50:06.282Z,68.18
2017-11-15T15:51:51.686Z,68.19
2017-11-15T15:55:36.968Z,68.21
2017-11-15T15:57:26.090Z,68.21
2017-11-15T15:59:15.488Z,68.20
2017-11-15T16:01:06.187Z,68.15
2017-11-15T16:03:13.794Z,68.17
2017-11-15T16:05:05.396Z,68.17
2017-11-15T16:06:53.505Z,68.17
2017-11-15T16:08:48.178Z,68.20
2017-11-15T16:10:38.896Z,68.22
2017-11-15T16:12:25.073Z,68.25
2017-11-15T16:14:26.110Z,68.27
2017-11-15T16:16:20.392Z,68.30
2017-11-15T16:18:25.265Z,68.34
2017-11-15T16:20:17.072Z,68.36
2017-11-15T16:22:12.987Z,68.38
2017-11-15T16:24:05.995Z,68.41
2017-11-15T16:25:52.284Z,68.42
2017-11-15T16:29:47.926Z,68.44
2017-11-15T16:31:43.597Z,68.45
2017-11-15T16:33:46.144Z,68.46
2017-11-15T16:35:43.671Z,68.46
2017-11-15T16:37:31.474Z,68.46
2017-11-15T16:39:20.372Z,68.47
2017-11-15T16:41:07.773Z,68.46
2017-11-15T16:43:03.072Z,68.47
2017-11-15T16:44:51.879Z,68.46
2017-11-15T16:46:40.878Z,68.46
2017-11-15T16:48:41.375Z,68.45
2017-11-15T16:50:30.429Z,68.44
2017-11-15T16:52:22.407Z,68.44
2017-11-15T16:54:12.017Z,68.45
2017-11-15T16:56:14.715Z,68.46
2017-11-15T16:58:06.717Z,68.48
2017-11-15T16:59:57.314Z,68.49
2017-11-15T17:01:51.717Z,68.52
2017-11-15T17:03:38.241Z,68.55
2017-11-15T17:05:28.742Z,68.57
2017-11-15T17:09:13.861Z,68.60
2017-11-15T17:11:07.055Z,68.62
2017-11-15T17:12:59.741Z,68.65
2017-11-15T17:14:52.731Z,68.68
2017-11-15T17:17:01.651Z,68.69
2017-11-15T17:18:48.827Z,68.68
2017-11-15T17:20:41.289Z,68.65
2017-11-15T17:22:36.630Z,68.65
2017-11-15T17:24:31.774Z,68.65
2017-11-15T17:26:24.685Z,68.67
2017-11-15T17:28:18.531Z,68.66
2017-11-15T17:30:13.415Z,68.66
2017-11-15T17:34:00.517Z,68.67
2017-11-15T17:36:04.417Z,68.69
2017-11-15T17:40:07.145Z,68.69
2017-11-15T17:41:59.530Z,68.71
2017-11-15T17:43:59.421Z,68.72
2017-11-15T17:45:50.032Z,68.72
2017-11-15T17:47:47.138Z,68.72
2017-11-15T17:49:39.430Z,68.73
2017-11-15T17:51:36.429Z,68.73
2017-11-15T17:53:29.510Z,68.74
2017-11-15T17:55:19.622Z,68.74
2017-11-15T17:57:10.363Z,68.73
2017-11-15T17:59:08.740Z,68.75
2017-11-15T18:01:09.780Z,68.73
2017-11-15T18:03:04.433Z,68.73
2017-11-15T18:05:06.438Z,68.74
2017-11-15T18:06:57.844Z,68.73
2017-11-15T18:08:57.895Z,68.74
2017-11-15T18:10:46.651Z,68.75
2017-11-15T18:12:36.058Z,68.75
2017-11-15T18:14:28.465Z,68.75
2017-11-15T18:16:27.349Z,68.74
2017-11-15T18:18:17.385Z,68.72
2017-11-15T18:20:14.359Z,68.69
2017-11-15T18:22:06.060Z,68.67
2017-11-15T18:23:57.059Z,68.66
2017-11-15T18:25:41.637Z,68.65
2017-11-15T18:27:26.068Z,68.63
2017-11-15T18:29:15.074Z,68.60
2017-11-15T18:31:03.590Z,68.59
2017-11-15T18:32:57.618Z,68.58
2017-11-15T18:34:52.979Z,68.55
2017-11-15T18:36:43.149Z,68.52
2017-11-15T18:38:34.437Z,68.50
2017-11-15T18:40:25.232Z,68.49
2017-11-15T18:42:25.638Z,68.48
2017-11-15T18:44:19.154Z,68.48
2017-11-15T18:46:05.660Z,68.47
2017-11-15T18:47:59.556Z,68.46
2017-11-15T18:49:58.837Z,68.45
2017-11-15T18:51:48.716Z,68.44
2017-11-15T18:53:45.827Z,68.43
2017-11-15T18:55:37.242Z,68.43
2017-11-15T18:57:29.562Z,68.41
2017-11-15T18:59:15.737Z,68.42
2017-11-15T19:01:05.551Z,68.36
2017-11-15T19:02:58.354Z,68.40
2017-11-15T19:04:52.535Z,68.40
2017-11-15T19:06:46.621Z,68.41
2017-11-15T19:08:38.528Z,68.41
2017-11-15T19:10:27.239Z,68.41
2017-11-15T19:12:27.429Z,68.41
2017-11-15T19:14:28.342Z,68.41
2017-11-15T19:16:39.722Z,68.40
2017-11-15T19:18:35.622Z,68.42
2017-11-15T19:20:23.328Z,68.43
2017-11-15T19:22:13.314Z,68.45
2017-11-15T19:24:08.318Z,68.48
2017-11-15T19:25:53.534Z,68.49
2017-11-15T19:29:46.118Z,68.53
2017-11-15T19:31:33.327Z,68.55
2017-11-15T19:33:22.742Z,68.58
2017-11-15T19:35:31.727Z,68.60
2017-11-15T19:37:25.455Z,68.63
2017-11-15T19:39:41.446Z,68.66
2017-11-15T19:41:36.192Z,68.65
2017-11-15T19:43:28.639Z,68.65
2017-11-15T19:45:33.554Z,68.64
2017-11-15T19:47:25.345Z,68.64
2017-11-15T19:49:15.861Z,68.64
2017-11-15T19:51:06.869Z,68.63
2017-11-15T19:53:08.255Z,68.62
2017-11-15T19:55:00.549Z,68.63
2017-11-15T19:56:45.853Z,68.65
2017-11-15T19:58:31.444Z,68.63
2017-11-15T20:03:10.804Z,68.63
2017-11-15T20:04:57.484Z,68.62
2017-11-15T20:06:44.276Z,68.63
2017-11-15T20:08:34.233Z,68.61
2017-11-15T20:10:23.392Z,68.60
2017-11-15T20:12:11.606Z,68.59
2017-11-15T20:13:57.988Z,68.58
2017-11-15T20:15:44.543Z,68.62
2017-11-15T20:17:30.583Z,68.58
2017-11-15T20:19:13.808Z,68.59
2017-11-15T20:20:57.302Z,68.60
2017-11-15T20:22:42.432Z,68.60
2017-11-15T20:24:33.977Z,68.60
2017-11-15T20:26:25.086Z,68.61
2017-11-15T20:28:10.433Z,68.61
2017-11-15T20:29:55.801Z,68.61
2017-11-15T20:31:45.124Z,68.60
2017-11-15T20:33:35.733Z,68.61
2017-11-15T20:35:19.240Z,68.61
2017-11-15T20:37:02.130Z,68.60
2017-11-15T20:38:51.321Z,68.59
2017-11-15T20:40:36.449Z,68.58
2017-11-15T20:42:24.451Z,68.56
2017-11-15T20:44:12.274Z,68.56
2017-11-15T20:46:06.029Z,68.55
2017-11-15T20:47:49.292Z,68.56
2017-11-15T20:49:34.722Z,68.56
2017-11-15T20:51:21.526Z,68.56
2017-11-15T20:53:10.093Z,68.57
2017-11-15T20:55:04.209Z,68.57
2017-11-15T20:56:53.240Z,68.56
2017-11-15T20:58:39.761Z,68.56
2017-11-15T21:00:33.514Z,68.55
2017-11-15T21:02:17.858Z,68.56
2017-11-15T21:04:12.452Z,68.56
2017-11-15T21:06:00.872Z,68.57
2017-11-15T21:07:55.179Z,68.58
2017-11-15T21:09:38.615Z,68.59
2017-11-15T21:11:27.240Z,68.60
2017-11-15T21:13:16.377Z,68.60
2017-11-15T21:15:02.401Z,68.61
2017-11-15T21:16:48.801Z,68.61
2017-11-15T21:18:40.610Z,68.62
2017-11-15T21:20:23.356Z,68.62
2017-11-15T21:22:05.950Z,68.64
2017-11-15T21:23:47.252Z,68.64
2017-11-15T21:25:28.039Z,68.66
2017-11-15T21:27:09.758Z,68.65
2017-11-15T21:28:53.012Z,68.65
2017-11-15T21:30:39.013Z,68.65
2017-11-15T21:32:28.269Z,68.65
2017-11-15T21:34:13.088Z,68.66
2017-11-15T21:35:57.371Z,68.65
2017-11-15T21:37:40.349Z,68.66
2017-11-15T21:39:21.710Z,68.66
2017-11-15T21:41:02.836Z,68.67
2017-11-15T21:42:41.768Z,68.66
2017-11-15T21:44:20.934Z,68.66
2017-11-15T21:45:58.518Z,68.65
2017-11-15T21:47:36.984Z,68.65
2017-11-15T21:49:15.754Z,68.65
2017-11-15T21:50:55.740Z,68.66
2017-11-15T21:52:35.711Z,68.66
2017-11-15T21:54:15.326Z,68.66
2017-11-15T21:55:57.485Z,68.67
2017-11-15T21:57:38.511Z,68.67
2017-11-15T21:59:17.781Z,68.68
2017-11-15T22:01:00.941Z,68.68
2017-11-15T22:02:45.472Z,68.68
2017-11-15T22:04:31.462Z,68.69
2017-11-15T22:06:24.142Z,68.70
2017-11-15T22:08:09.810Z,68.71
2017-11-15T22:09:57.251Z,68.71
2017-11-15T22:11:42.573Z,68.72
2017-11-15T22:13:29.384Z,68.73
2017-11-15T22:15:11.280Z,68.73
2017-11-15T22:17:05.258Z,68.74
2017-11-15T22:18:55.611Z,68.75
2017-11-15T22:20:40.839Z,68.76
2017-11-15T22:22:27.117Z,68.77
2017-11-15T22:24:11.604Z,68.78